createdAt,value
2023-04-04T00:01:41.771Z,0.90
2023-04-04T00:04:10.357Z,1.03
2023-04-04T00:06:44.453Z,1.10
2023-04-04T00:09:14.384Z,0.97
2023-04-04T00:11:43.671Z,1.03
2023-04-04T00:14:12.956Z,1.03
2023-04-04T00:16:41.735Z,1.20
2023-04-04T00:19:14.364Z,1.20
2023-04-04T00:21:43.899Z,1.07
2023-04-04T00:24:12.938Z,1.20
2023-04-04T00:26:41.953Z,1.33
2023-04-04T00:29:10.954Z,1.03
2023-04-04T00:31:39.850Z,1.17
2023-04-04T00:34:08.404Z,1.20
2023-04-04T00:36:37.354Z,1.20
2023-04-04T00:39:07.531Z,0.97
2023-04-04T00:41:37.330Z,1.20
2023-04-04T00:44:08.219Z,1.13
2023-04-04T00:46:37.184Z,1.20
2023-04-04T00:49:07.163Z,1.13
2023-04-04T00:51:36.021Z,1.20
2023-04-04T00:54:06.181Z,1.17
2023-04-04T00:56:37.279Z,1.20
2023-04-04T00:59:05.469Z,1.40
2023-04-04T01:01:33.731Z,1.10
2023-04-04T01:04:02.865Z,1.10
2023-04-04T01:06:32.802Z,1.30
2023-04-04T01:09:01.525Z,1.60
2023-04-04T01:11:33.752Z,1.30
2023-04-04T01:14:02.702Z,1.17
2023-04-04T01:16:31.765Z,1.30
2023-04-04T01:19:00.567Z,1.20
2023-04-04T01:21:30.625Z,1.30
2023-04-04T01:24:03.457Z,1.60
2023-04-04T01:26:34.110Z,1.10
2023-04-04T01:29:02.636Z,1.30
2023-04-04T01:31:39.130Z,1.20
2023-04-04T01:34:16.732Z,1.17
2023-04-04T01:36:50.690Z,1.20
2023-04-04T01:39:26.685Z,1.30
2023-04-04T01:41:58.559Z,1.33
2023-04-04T01:44:27.509Z,1.07
2023-04-04T01:46:56.400Z,1.30
2023-04-04T01:49:25.067Z,1.20
2023-04-04T01:51:55.157Z,1.30
2023-04-04T01:54:24.220Z,1.40
2023-04-04T01:56:53.195Z,1.30
2023-04-04T01:59:23.000Z,1.70
2023-04-04T02:01:51.436Z,1.43
2023-04-04T02:04:19.848Z,1.50
2023-04-04T02:06:48.146Z,1.20
2023-04-04T02:09:16.306Z,1.30
2023-04-04T02:11:44.574Z,1.40
2023-04-04T02:14:12.850Z,1.13
2023-04-04T02:16:44.023Z,1.30
2023-04-04T02:19:13.140Z,1.50
2023-04-04T02:21:41.316Z,1.10
2023-04-04T02:24:10.502Z,1.33
2023-04-04T02:26:39.061Z,1.30
2023-04-04T02:29:07.353Z,1.30
2023-04-04T02:31:35.533Z,1.33
2023-04-04T02:34:04.982Z,1.30
2023-04-04T02:36:33.064Z,1.37
2023-04-04T02:39:02.406Z,1.30
2023-04-04T02:41:30.605Z,1.37
2023-04-04T02:43:59.100Z,1.47
2023-04-04T02:46:27.206Z,1.20
2023-04-04T02:48:55.326Z,1.40
2023-04-04T02:51:24.830Z,1.43
2023-04-04T02:53:52.983Z,1.30
2023-04-04T02:56:21.291Z,1.33
2023-04-04T02:58:49.437Z,1.40
2023-04-04T03:01:17.780Z,1.10
2023-04-04T03:03:46.559Z,1.23
2023-04-04T03:06:15.550Z,1.07
2023-04-04T03:08:45.006Z,1.40
2023-04-04T03:11:13.571Z,1.40
2023-04-04T03:13:42.135Z,1.20
2023-04-04T03:16:10.303Z,1.30
2023-04-04T03:18:38.581Z,1.20
2023-04-04T03:21:06.801Z,1.10
2023-04-04T03:23:35.065Z,1.53
2023-04-04T03:26:04.697Z,1.50
2023-04-04T03:28:32.958Z,1.40
2023-04-04T03:31:06.119Z,1.17
2023-04-04T03:33:36.902Z,1.27
2023-04-04T03:36:05.770Z,1.27
2023-04-04T03:38:34.006Z,1.30
2023-04-04T03:41:07.911Z,1.13
2023-04-04T03:43:36.392Z,1.17
2023-04-04T03:46:05.882Z,1.10
2023-04-04T03:48:35.411Z,1.00
2023-04-04T03:51:04.773Z,1.10
2023-04-04T03:53:33.181Z,1.30
2023-04-04T03:56:02.129Z,1.30
2023-04-04T03:58:31.796Z,1.20
2023-04-04T04:00:59.982Z,1.20
2023-04-04T04:03:28.352Z,1.13
2023-04-04T04:05:56.755Z,1.30
2023-04-04T04:08:25.328Z,1.40
2023-04-04T04:10:54.515Z,1.20
2023-04-04T04:13:22.953Z,1.37
2023-04-04T04:15:52.788Z,1.30
2023-04-04T04:18:21.454Z,1.40
2023-04-04T04:20:49.770Z,1.30
2023-04-04T04:23:17.846Z,1.50
2023-04-04T04:25:49.474Z,1.40
2023-04-04T04:28:17.943Z,1.20
2023-04-04T04:30:46.198Z,1.30
2023-04-04T04:33:15.633Z,1.10
2023-04-04T04:35:44.133Z,1.30
2023-04-04T04:38:13.132Z,1.20
2023-04-04T04:40:43.411Z,1.20
2023-04-04T04:43:16.028Z,1.33
2023-04-04T04:45:45.376Z,1.10
2023-04-04T04:48:17.260Z,1.20
2023-04-04T04:50:46.334Z,1.50
2023-04-04T04:53:14.815Z,1.30
2023-04-04T04:55:43.835Z,1.30
2023-04-04T04:58:12.199Z,1.10
2023-04-04T05:00:40.673Z,1.30
2023-04-04T05:03:09.031Z,1.30
2023-04-04T05:05:38.863Z,1.20
2023-04-04T05:08:07.871Z,1.40
2023-04-04T05:10:36.394Z,1.30
2023-04-04T05:13:05.109Z,1.30
2023-04-04T05:15:33.983Z,1.27
2023-04-04T05:18:02.730Z,1.20
2023-04-04T05:20:32.210Z,1.20
2023-04-04T05:23:03.312Z,1.30
2023-04-04T05:25:33.072Z,1.47
2023-04-04T05:28:04.231Z,1.70
2023-04-04T05:30:35.972Z,1.10
2023-04-04T05:33:05.460Z,1.57
2023-04-04T05:35:33.808Z,1.30
2023-04-04T05:38:03.559Z,1.40
2023-04-04T05:40:31.676Z,1.27
2023-04-04T05:43:02.160Z,1.33
2023-04-04T05:45:30.453Z,1.43
2023-04-04T05:47:58.694Z,1.23
2023-04-04T05:50:27.068Z,1.17
2023-04-04T05:52:57.184Z,1.17
2023-04-04T05:55:26.730Z,1.10
2023-04-04T05:57:54.863Z,1.17
2023-04-04T06:00:22.997Z,1.10
2023-04-04T06:02:51.467Z,1.37
2023-04-04T06:05:20.137Z,1.30
2023-04-04T06:07:48.430Z,1.40
2023-04-04T06:10:16.824Z,1.30
2023-04-04T06:12:46.574Z,1.10
2023-04-04T06:15:15.070Z,1.10
2023-04-04T06:17:43.561Z,1.30
2023-04-04T06:20:12.908Z,1.20
2023-04-04T06:22:41.451Z,1.00
2023-04-04T06:25:11.520Z,1.00
2023-04-04T06:27:39.589Z,1.00
2023-04-04T06:30:12.033Z,1.03
2023-04-04T06:32:40.279Z,1.37
2023-04-04T06:35:10.304Z,1.20
2023-04-04T06:37:38.388Z,1.10
2023-04-04T06:40:08.871Z,1.20
2023-04-04T06:42:38.229Z,1.03
2023-04-04T06:45:10.186Z,1.30
2023-04-04T06:47:38.671Z,1.20
2023-04-04T06:50:08.367Z,1.17
2023-04-04T06:52:39.481Z,1.10
2023-04-04T06:55:09.069Z,1.00
2023-04-04T06:57:39.330Z,1.10
2023-04-04T07:00:11.253Z,0.90
2023-04-04T07:02:39.533Z,1.23
2023-04-04T07:05:10.215Z,1.20
2023-04-04T07:07:39.176Z,1.10
2023-04-04T07:10:09.492Z,1.10
2023-04-04T07:12:39.054Z,1.10
2023-04-04T07:15:12.905Z,1.20
2023-04-04T07:17:42.680Z,1.00
2023-04-04T07:20:11.579Z,0.90
2023-04-04T07:22:40.400Z,1.00
2023-04-04T07:25:10.196Z,1.00
2023-04-04T07:27:38.485Z,1.10
2023-04-04T07:30:10.187Z,0.73
2023-04-04T07:32:39.068Z,1.00
2023-04-04T07:35:08.645Z,1.00
2023-04-04T07:37:38.225Z,1.10
2023-04-04T07:40:09.678Z,1.00
2023-04-04T07:42:38.116Z,1.20
2023-04-04T07:45:09.289Z,1.10
2023-04-04T07:47:38.373Z,1.10
2023-04-04T07:50:09.249Z,1.40
2023-04-04T07:52:40.992Z,1.17
2023-04-04T07:55:10.918Z,0.97
2023-04-04T07:57:40.682Z,0.90
2023-04-04T08:00:15.107Z,1.10
2023-04-04T08:02:45.962Z,1.00
2023-04-04T08:05:14.908Z,1.10
2023-04-04T08:07:43.443Z,1.23
2023-04-04T08:10:12.919Z,1.20
2023-04-04T08:12:41.601Z,1.03
2023-04-04T08:15:13.095Z,0.90
2023-04-04T08:17:43.501Z,0.90
2023-04-04T08:20:14.158Z,0.90
2023-04-04T08:22:43.897Z,0.90
2023-04-04T08:25:12.818Z,0.73
2023-04-04T08:27:44.057Z,1.10
2023-04-04T08:30:15.496Z,1.00
2023-04-04T08:32:44.305Z,0.87
2023-04-04T08:35:12.881Z,0.90
2023-04-04T08:37:45.271Z,1.00
2023-04-04T08:40:13.818Z,1.00
2023-04-04T08:42:44.296Z,0.80
2023-04-04T08:45:19.302Z,1.00
2023-04-04T08:47:50.461Z,0.57
2023-04-04T08:50:20.537Z,0.80
2023-04-04T08:52:49.240Z,1.00
2023-04-04T08:55:17.460Z,0.80
2023-04-04T08:57:45.802Z,0.70
2023-04-04T09:00:21.367Z,1.00
2023-04-04T09:03:02.434Z,0.90
2023-04-04T09:05:30.850Z,0.97
2023-04-04T09:08:00.145Z,0.90
2023-04-04T09:10:29.907Z,0.70
2023-04-04T09:13:12.593Z,0.70
2023-04-04T09:15:50.930Z,0.67
2023-04-04T09:18:20.207Z,0.60
2023-04-04T09:20:49.509Z,0.80
2023-04-04T09:23:20.514Z,0.73
2023-04-04T09:28:23.344Z,0.43
2023-04-04T09:30:53.992Z,0.87
2023-04-04T09:33:25.057Z,0.70
2023-04-04T09:35:57.079Z,0.80
2023-04-04T09:38:27.579Z,0.70
2023-04-04T09:40:56.855Z,0.80
2023-04-04T09:43:26.550Z,0.60
2023-04-04T09:45:56.661Z,0.60
2023-04-04T09:48:30.260Z,0.53
2023-04-04T09:50:59.809Z,0.73
2023-04-04T09:53:29.152Z,0.70
2023-04-04T09:55:58.600Z,0.60
2023-04-04T09:58:28.542Z,0.60
2023-04-04T10:01:02.810Z,0.67
2023-04-04T10:03:32.312Z,0.60
2023-04-04T10:06:07.562Z,0.60
2023-04-04T10:08:40.650Z,0.70
2023-04-04T10:11:11.195Z,0.80
2023-04-04T10:13:42.299Z,0.70
2023-04-04T10:16:12.375Z,0.70
2023-04-04T10:18:41.469Z,0.87
2023-04-04T10:23:45.295Z,0.90
2023-04-04T10:26:14.088Z,0.80
2023-04-04T10:28:43.929Z,0.80
2023-04-04T10:31:22.218Z,0.97
2023-04-04T10:34:06.476Z,1.00
2023-04-04T10:36:44.358Z,0.90
2023-04-04T10:39:16.672Z,0.90
2023-04-04T10:41:52.258Z,0.80
2023-04-04T10:44:29.497Z,0.90
2023-04-04T10:47:03.386Z,0.80
2023-04-04T10:49:32.707Z,0.90
2023-04-04T10:52:01.430Z,0.70
2023-04-04T10:54:30.880Z,0.90
2023-04-04T10:57:02.159Z,0.87
2023-04-04T10:59:30.737Z,0.90
2023-04-04T11:02:05.049Z,0.70
2023-04-04T11:04:35.701Z,0.90
2023-04-04T11:07:17.407Z,0.80
2023-04-04T11:09:54.517Z,0.90
2023-04-04T11:12:31.384Z,1.10
2023-04-04T11:15:11.215Z,0.90
2023-04-04T11:18:00.896Z,0.80
2023-04-04T11:20:35.934Z,1.00
2023-04-04T11:23:11.221Z,1.00
2023-04-04T11:25:42.101Z,1.17
2023-04-04T11:28:15.755Z,1.13
2023-04-04T11:30:48.831Z,1.20
2023-04-04T11:33:28.966Z,1.00
2023-04-04T11:36:01.723Z,0.90
2023-04-04T11:38:30.369Z,0.83
2023-04-04T11:40:59.073Z,0.77
2023-04-04T11:43:28.682Z,0.70
2023-04-04T11:46:09.019Z,0.60
2023-04-04T11:48:40.957Z,0.70
2023-04-04T11:51:11.445Z,0.80
2023-04-04T11:53:43.640Z,0.77
2023-04-04T11:56:17.060Z,1.00
2023-04-04T11:58:53.817Z,0.80
2023-04-04T12:01:27.046Z,0.87
2023-04-04T12:03:58.356Z,0.90
2023-04-04T12:06:27.305Z,0.73
2023-04-04T12:08:55.616Z,0.70
2023-04-04T12:11:28.900Z,0.70
2023-04-04T12:13:57.190Z,0.80
2023-04-04T12:16:25.508Z,0.70
2023-04-04T12:18:53.748Z,1.00
2023-04-04T12:21:23.570Z,1.13
2023-04-04T12:23:51.793Z,0.80
2023-04-04T12:26:20.110Z,0.70
2023-04-04T12:28:49.148Z,0.70
2023-04-04T12:31:17.750Z,0.70
2023-04-04T12:33:46.256Z,0.73
2023-04-04T12:36:14.380Z,0.70
2023-04-04T12:41:36.754Z,0.73
2023-04-04T12:44:07.477Z,0.80
2023-04-04T12:46:40.070Z,0.80
2023-04-04T12:49:09.437Z,0.70
2023-04-04T12:51:41.648Z,0.93
2023-04-04T12:54:10.709Z,0.80
2023-04-04T12:56:40.320Z,0.90
2023-04-04T12:59:11.607Z,0.80
2023-04-04T13:01:39.820Z,0.87
2023-04-04T13:04:10.705Z,0.90
2023-04-04T13:06:39.516Z,0.80
2023-04-04T13:09:07.852Z,0.80
2023-04-04T13:12:03.080Z,0.90
2023-04-04T13:15:01.226Z,0.90
2023-04-04T13:17:44.253Z,0.90
2023-04-04T13:20:13.769Z,0.97
2023-04-04T13:22:42.913Z,0.90
2023-04-04T13:25:12.352Z,0.90
2023-04-04T13:27:42.399Z,0.73
2023-04-04T13:30:12.012Z,0.70
2023-04-04T13:32:40.118Z,0.80
2023-04-04T13:35:09.544Z,0.90
2023-04-04T13:37:37.618Z,0.80
2023-04-04T13:40:08.287Z,1.00
2023-04-04T13:42:36.372Z,0.87
2023-04-04T13:45:06.886Z,1.00
2023-04-04T13:47:35.010Z,1.00
2023-04-04T13:50:03.978Z,1.00
2023-04-04T13:52:32.088Z,1.00
2023-04-04T13:55:02.121Z,0.80
2023-04-04T13:57:30.498Z,0.60
2023-04-04T14:00:00.738Z,0.80
2023-04-04T14:02:30.856Z,0.80
2023-04-04T14:04:59.214Z,0.90
2023-04-04T14:07:27.348Z,0.80
2023-04-04T14:09:55.770Z,1.00
2023-04-04T14:12:23.963Z,1.17
2023-04-04T14:14:52.062Z,0.93
2023-04-04T14:17:20.210Z,0.97
2023-04-04T14:19:49.775Z,0.90
2023-04-04T14:22:18.021Z,1.00
2023-04-04T14:24:46.455Z,1.07
2023-04-04T14:27:14.746Z,0.90
2023-04-04T14:29:43.025Z,1.00
2023-04-04T14:32:11.673Z,1.10
2023-04-04T14:34:39.854Z,0.80
2023-04-04T14:37:09.344Z,0.90
2023-04-04T14:39:37.524Z,1.03
2023-04-04T14:42:05.892Z,0.80
2023-04-04T14:44:34.029Z,0.87
2023-04-04T14:47:02.353Z,0.90
2023-04-04T14:49:32.659Z,1.00
2023-04-04T14:52:01.414Z,0.87
2023-04-04T14:54:30.991Z,1.00
2023-04-04T14:56:59.312Z,1.10
2023-04-04T14:59:27.565Z,1.00
2023-04-04T15:01:56.898Z,1.00
2023-04-04T15:04:25.478Z,0.90
2023-04-04T15:06:53.932Z,0.90
2023-04-04T15:09:23.240Z,1.10
2023-04-04T15:11:53.828Z,0.70
2023-04-04T15:14:22.414Z,0.80
2023-04-04T15:16:50.740Z,0.70
2023-04-04T15:19:19.015Z,0.80
2023-04-04T15:21:50.059Z,1.00
2023-04-04T15:24:18.628Z,0.80
2023-04-04T15:26:47.670Z,0.80
2023-04-04T15:29:17.547Z,1.00
2023-04-04T15:31:46.859Z,0.90
2023-04-04T15:34:15.930Z,0.73
2023-04-04T15:36:44.375Z,1.17
2023-04-04T15:39:13.937Z,1.00
2023-04-04T15:41:42.128Z,0.93
2023-04-04T15:44:10.413Z,0.97
2023-04-04T15:46:39.940Z,0.80
2023-04-04T15:49:08.077Z,0.83
2023-04-04T15:51:37.614Z,0.60
2023-04-04T15:54:05.949Z,0.80
2023-04-04T15:56:34.048Z,0.90
2023-04-04T15:59:02.133Z,1.00
2023-04-04T16:01:30.471Z,0.80
2023-04-04T16:04:00.160Z,1.00
2023-04-04T16:06:31.089Z,1.00
2023-04-04T16:08:59.247Z,0.93
2023-04-04T16:11:27.605Z,0.90
2023-04-04T16:13:55.924Z,0.87
2023-04-04T16:16:24.239Z,1.00
2023-04-04T16:18:52.356Z,0.90
2023-04-04T16:21:21.769Z,0.80
2023-04-04T16:23:50.357Z,0.80
2023-04-04T16:26:18.380Z,0.93
2023-04-04T16:28:47.182Z,1.07
2023-04-04T16:31:15.830Z,1.00
2023-04-04T16:33:44.306Z,0.93
2023-04-04T16:36:12.648Z,0.87
2023-04-04T16:38:42.485Z,0.80
2023-04-04T16:41:10.710Z,0.90
2023-04-04T16:43:38.928Z,0.80
2023-04-04T16:46:07.239Z,0.90
2023-04-04T16:48:35.410Z,0.83
2023-04-04T16:51:03.803Z,0.90
2023-04-04T16:53:32.086Z,0.87
2023-04-04T16:56:01.701Z,1.20
2023-04-04T16:58:29.796Z,1.00
2023-04-04T17:00:58.046Z,1.10
2023-04-04T17:03:26.178Z,0.90
2023-04-04T17:05:59.618Z,1.00
2023-04-04T17:08:27.737Z,1.00
2023-04-04T17:10:55.880Z,1.10
2023-04-04T17:13:25.446Z,0.93
2023-04-04T17:15:53.554Z,1.00
2023-04-04T17:18:22.457Z,1.10
2023-04-04T17:20:51.948Z,1.00
2023-04-04T17:23:20.178Z,1.00
2023-04-04T17:25:48.717Z,1.00
2023-04-04T17:28:17.010Z,1.07
2023-04-04T17:30:46.998Z,1.70
2023-04-04T17:33:15.821Z,1.77
2023-04-04T17:35:48.094Z,1.67
2023-04-04T17:38:16.430Z,2.20
2023-04-04T17:40:44.732Z,2.37
2023-04-04T17:43:12.868Z,2.27
2023-04-04T17:45:41.054Z,2.97
2023-04-04T17:48:10.762Z,2.70
2023-04-04T17:50:39.306Z,2.47
2023-04-04T17:53:08.476Z,1.90
2023-04-04T17:55:37.076Z,1.70
2023-04-04T17:58:05.341Z,1.70
2023-04-04T18:00:33.544Z,1.40
2023-04-04T18:03:01.872Z,1.70
2023-04-04T18:05:32.890Z,1.60
2023-04-04T18:08:04.765Z,1.53
2023-04-04T18:10:33.109Z,1.40
2023-04-04T18:13:01.356Z,1.37
2023-04-04T18:15:29.722Z,1.73
2023-04-04T18:17:58.443Z,1.60
2023-04-04T18:20:34.461Z,1.40
2023-04-04T18:23:05.102Z,1.33
2023-04-04T18:25:34.297Z,1.70
2023-04-04T18:28:03.202Z,1.60
2023-04-04T18:30:31.881Z,1.60
2023-04-04T18:33:00.230Z,1.77
2023-04-04T18:35:28.485Z,1.67
2023-04-04T18:37:56.765Z,1.50
2023-04-04T18:40:26.430Z,1.80
2023-04-04T18:42:54.849Z,1.47
2023-04-04T18:45:33.555Z,2.10
2023-04-04T18:48:08.368Z,1.37
2023-04-04T18:50:37.165Z,1.50
2023-04-04T18:53:05.522Z,1.43
2023-04-04T18:55:35.244Z,1.50
2023-04-04T18:58:03.496Z,1.47
2023-04-04T19:00:32.017Z,1.37
2023-04-04T19:03:00.310Z,1.60
2023-04-04T19:05:33.242Z,1.30
2023-04-04T19:08:04.472Z,1.40
2023-04-04T19:10:35.317Z,1.20
2023-04-04T19:13:06.420Z,1.27
2023-04-04T19:15:34.831Z,1.33
2023-04-04T19:18:03.212Z,1.50
2023-04-04T19:20:31.938Z,1.43
2023-04-04T19:23:00.278Z,1.13
2023-04-04T19:25:28.766Z,1.20
2023-04-04T19:27:58.411Z,1.37
2023-04-04T19:30:43.054Z,1.40
2023-04-04T19:33:12.477Z,1.43
2023-04-04T19:35:53.880Z,1.60
2023-04-04T19:38:26.080Z,1.40
2023-04-04T19:40:58.485Z,1.50
2023-04-04T19:43:29.410Z,1.50
2023-04-04T19:45:59.928Z,1.60
2023-04-04T19:48:49.886Z,1.63
2023-04-04T19:51:50.395Z,1.73
2023-04-04T19:54:26.856Z,2.10
2023-04-04T19:57:03.282Z,1.63
2023-04-04T20:00:13.300Z,1.77
2023-04-04T20:03:07.285Z,1.70
2023-04-04T20:06:06.468Z,1.80
2023-04-04T20:08:44.205Z,1.90
2023-04-04T20:11:13.907Z,1.50
2023-04-04T20:13:42.472Z,1.70
2023-04-04T20:16:14.643Z,2.20
2023-04-04T20:18:45.621Z,1.90
2023-04-04T20:21:18.140Z,1.90
2023-04-04T20:23:49.493Z,2.07
2023-04-04T20:26:59.201Z,2.03
2023-04-04T20:29:31.028Z,2.00
2023-04-04T20:32:02.394Z,1.93
2023-04-04T20:34:50.485Z,1.80
2023-04-04T20:37:22.056Z,1.70
2023-04-04T20:39:54.490Z,1.90
2023-04-04T20:42:51.418Z,1.93
2023-04-04T20:45:47.172Z,1.90
2023-04-04T20:48:42.172Z,2.00
2023-04-04T20:51:29.094Z,1.87
2023-04-04T20:54:01.563Z,2.20
2023-04-04T20:56:52.728Z,2.07
2023-04-04T20:59:41.875Z,1.77
2023-04-04T21:02:18.840Z,2.20
2023-04-04T21:04:52.279Z,1.90
2023-04-04T21:07:39.750Z,2.30
2023-04-04T21:10:25.685Z,2.10
2023-04-04T21:12:56.602Z,1.97
2023-04-04T21:15:30.393Z,2.00
2023-04-04T21:18:03.256Z,1.97
2023-04-04T21:21:11.401Z,2.20
2023-04-04T21:23:49.621Z,1.90
2023-04-04T21:26:32.131Z,1.90
2023-04-04T21:29:04.032Z,1.80
2023-04-04T21:31:44.298Z,1.80
2023-04-04T21:34:17.857Z,2.00
2023-04-04T21:36:50.347Z,1.80
2023-04-04T21:39:25.660Z,1.80
2023-04-04T21:41:58.246Z,1.90
2023-04-04T21:44:27.746Z,1.73
2023-04-04T21:46:56.805Z,1.87
2023-04-04T21:49:26.157Z,1.67
2023-04-04T21:51:55.756Z,1.73
2023-04-04T21:54:24.595Z,2.00
2023-04-04T21:56:52.752Z,1.67
2023-04-04T21:59:21.427Z,1.90
2023-04-04T22:01:51.891Z,2.03
2023-04-04T22:04:21.258Z,1.60
2023-04-04T22:06:50.436Z,1.87
2023-04-04T22:09:22.831Z,1.57
2023-04-04T22:11:53.962Z,1.70
2023-04-04T22:14:22.565Z,1.60
2023-04-04T22:16:53.155Z,1.77
2023-04-04T22:19:23.911Z,1.80
2023-04-04T22:21:54.201Z,1.60
2023-04-04T22:24:24.250Z,1.80
2023-04-04T22:26:52.903Z,1.60
2023-04-04T22:29:21.555Z,1.63
2023-04-04T22:31:50.253Z,1.60
2023-04-04T22:34:18.803Z,1.60
2023-04-04T22:36:47.778Z,1.60
2023-04-04T22:39:21.004Z,1.60
2023-04-04T22:41:51.112Z,1.60
2023-04-04T22:44:19.679Z,1.70
2023-04-04T22:46:48.424Z,1.67
2023-04-04T22:49:17.904Z,1.63
2023-04-04T22:51:46.499Z,1.67
2023-04-04T22:54:16.917Z,1.70
2023-04-04T22:56:46.137Z,1.47
2023-04-04T22:59:16.247Z,1.57
2023-04-04T23:01:44.685Z,1.50
2023-04-04T23:04:13.178Z,1.63
2023-04-04T23:06:41.438Z,1.47
2023-04-04T23:09:09.582Z,1.60
2023-04-04T23:11:39.055Z,1.83
2023-04-04T23:14:09.217Z,1.80
2023-04-04T23:16:40.122Z,1.60
2023-04-04T23:19:08.690Z,1.40
2023-04-04T23:21:38.046Z,1.47
2023-04-04T23:24:10.291Z,1.90
2023-04-04T23:26:38.985Z,1.70
2023-04-04T23:29:07.545Z,1.60
2023-04-04T23:31:36.619Z,1.80
2023-04-04T23:34:06.663Z,1.57
2023-04-04T23:36:35.731Z,1.60
2023-04-04T23:39:05.008Z,1.50
2023-04-04T23:41:33.513Z,1.43
2023-04-04T23:44:02.048Z,1.83
2023-04-04T23:46:32.657Z,1.73
2023-04-04T23:49:01.302Z,1.87
2023-04-04T23:51:38.056Z,1.80
2023-04-04T23:54:07.219Z,1.70
2023-04-04T23:56:36.604Z,1.70
2023-04-04T23:59:06.630Z,1.50
